Aérodrome :
LOGIN :

S'inscrire | Disclaimer

   EN    FR    IT 

 










Légende :    VFR   VFR Marginal   IFR   IFR Intensif   IFR Très Intensif
Visi : 
Plafond : 
>= 8 km
>= 3000ft
5 à 8 km
1000 à 3000 ft
1500m à 5 km
500 à 1000 ft
800 à 1500m
200 à 500 ft
< 800m
< 200 ft
Symboles :   Orages  Brouillard  Fortes neiges  Fortes précipitations  Vent > 20 kt
SIGMETs :   Divers  Orages  Givrage  Turbulence  Onde Orograph.  Cendres Volcan.






- Altitude de l'aérodrome : 510 ft


LJCE - Cerklje

DERNIER METAR :
  • 230830Z VRB01KT 4000 BR OVC003 16/16 Q1011 RMK YLO

METARs EXPIRÉS :
  • 230800Z VRB02KT 2000 BR OVC003 16/15 Q1011 RMK YLO
  • 230730Z VRB02KT 0800 FG VV002 16/15 Q1011 RMK AMB
  • 230700Z VRB02KT 0400 FG VV002 16/15 Q1011 RMK RED
  • 230630Z VRB01KT 0200 FG VV002 15/15 Q1011 RMK RED
  • 230600Z VRB01KT 0200 FG VV002 15/15 Q1011 RMK RED

TAF TAF LJCE
Valide du 23 à 09h jusqu'au 23 à 18h UTC


230800Z 2309/2318 24005KT 2500 BR BKN004
BECMG 2309/2311 9999 NSW SCT015
PROB40
TEMPO 2309/2318 SHRA SCT030TCU BKN040



MET'MAP, la Météo Aéronautique d'un coup d'oeil ! - Copyright ORBIFLY Décembre 2007 - Disclaimer

ORBIFLY MET'MAP TEAM :

Programmation & Développement : Alexandra Zaïnal
Sur une idée originale de : Baudouin d'Aumeries
Assistance à la programmation : Marc-Olivier Méhu
Soutien technique & logistique : Manuel Goepfert

Contact : metmap@orbifly.com




SOURCES & CREDITS :

   NOAA